• Join FlightAware (Why Join?)
  • Login
  • US Flag 
05:48AM EDT


 

Airport Tracker/Info


-or-


 

Live Flight TrackerFlight Track Log ✈ DAL1981 ✈ 26-Jun-2013 ✈ KSMF - KMSP

Flight Track Log - Related Links

Times and Time Zones

All times are in EDT time to prevent confusion due to time zone crossing. See the DAL1981 flight status page for this flight to view local times or setup timezone preferences in your user account.

Time Position Orientation Groundspeed Altitude Reporting Facility
EDT Latitude Longitude Course Direction KTS MPH feet Rate Location/Type
03:54PM 38.6667 -121.5667 78° East 158 182 1,500  Level Northern Cal TRACON
03:55PM 38.6500 -121.5000 108° East 240 276 2,400 1,920 Climbing Northern Cal TRACON
03:56PM 38.4997 -121.2354 80° East  Level FlightAware Approximate
03:56PM 38.6500 -121.4000 90° East 255 293 5,400  Level Northern Cal TRACON
03:57PM 38.5391 -121.0716 76° East  Level FlightAware Approximate
03:57PM 38.6500 -121.3000 90° East 301 346 7,700  Level Northern Cal TRACON
03:58PM 38.5689 -120.9040 78° East  Level FlightAware Approximate
03:58PM 38.6667 -121.2000 78° East 298 343 10,200  Level Northern Cal TRACON
03:59PM 38.5968 -120.7358 78° East  Level FlightAware Approximate
03:59PM 38.6708 -121.0447 88° East 327 376 12,100  Level Oakland Center
04:00PM 38.6789 -120.9069 86° East 376 433 13,500 1,380 Climbing Oakland Center
04:01PM 38.6883 -120.7586 85° East 411 473 15,000 1,680 Climbing Oakland Center
04:02PM 38.6983 -120.5767 86° East 428 493 17,000 1,620 Climbing Oakland Center
04:03PM 38.7064 -120.4206 86° East 437 503 18,400 1,260 Climbing Oakland Center
04:05PM 38.7146 -120.2105 76° East  Level FlightAware Approximate
04:05PM 38.7311 -120.1250 76° East 458 527 20,900  Level Salt Lake Center
04:06PM 38.7653 -119.9639 75° East 469 540 22,400 1,320 Climbing Salt Lake Center
04:07PM 38.8033 -119.7692 76° East 471 542 23,700 1,020 Climbing Salt Lake Center
04:08PM 38.8944 -119.6453 47° Northeast 490 564 24,700 840 Climbing Oakland Center
04:09PM 39.0072 -119.5472 34° Northeast 490 564 25,600 840 Climbing Oakland Center
04:10PM 39.1236 -119.4483 33° Northeast 498 573 26,500 780 Climbing Oakland Center
04:11PM 39.2408 -119.3475 34° Northeast 504 580 27,300 780 Climbing Oakland Center
04:12PM 39.3592 -119.2464 33° Northeast 506 582 28,200 900 Climbing Oakland Center
04:14PM 39.4786 -119.1433 34° Northeast 510 587 29,200 960 Climbing Oakland Center
04:15PM 39.5986 -119.0403 33° Northeast 511 588 30,200 780 Climbing Oakland Center
04:16PM 39.7164 -118.9375 34° Northeast 505 581 30,900 660 Climbing Oakland Center
04:17PM 39.8336 -118.8331 34° Northeast 506 582 31,600 660 Climbing Oakland Center
04:18PM 39.9731 -118.7106 34° Northeast 501 577 32,300 600 Climbing Oakland Center
04:19PM 40.0836 -118.5969 38° Northeast 505 581 32,900 540 Climbing Oakland Center
04:20PM 40.1628 -118.4397 57° Northeast 516 594 33,500 660 Climbing Oakland Center
04:21PM 40.2156 -118.2528 70° East 513 590 34,300 720 Climbing Salt Lake Center
04:22PM 40.2589 -118.0922 70° East 505 581 35,000 300 Climbing Oakland Center
04:23PM 40.3128 -117.8925 70° East 507 583 35,000  Level Salt Lake Center
04:24PM 40.3525 -117.7564 69° East 503 579 35,000  Level Oakland Center
04:25PM 40.4119 -117.5653 68° East 506 582 35,000  Level Oakland Center
04:26PM 40.4614 -117.3997 69° East 507 583 35,000  Level Oakland Center
04:27PM 40.5211 -117.2061 68° East 508 585 35,000  Level Oakland Center
04:28PM 40.5711 -117.0375 69° East 510 587 35,000  Level Oakland Center
04:29PM 40.6208 -116.8683 69° East 508 585 35,000  Level Oakland Center
04:30PM 40.6761 -116.6742 69° East 502 578 35,000  Level Oakland Center
04:31PM 40.7333 -116.4794 69° East 505 581 35,000  Level Salt Lake Center
04:32PM 40.7819 -116.3131 69° East 507 583 35,000  Level Salt Lake Center
04:33PM 40.8369 -116.1181 69° East 506 582 35,000  Level Salt Lake Center
04:34PM 40.8842 -115.9494 70° East 510 587 35,000  Level Salt Lake Center
04:35PM 40.9392 -115.7564 69° East 505 581 35,000  Level Salt Lake Center
04:36PM 40.9858 -115.5889 70° East 505 581 35,000  Level Salt Lake Center
04:37PM 41.0389 -115.3933 70° East 506 582 35,000  Level Salt Lake Center
04:38PM 41.0867 -115.2269 69° East 505 581 35,000  Level Salt Lake Center
04:39PM 41.1328 -115.0603 70° East 504 580 35,000  Level Salt Lake Center
04:40PM 41.1847 -114.8636 71° East 505 581 35,000  Level Salt Lake Center
04:41PM 41.2297 -114.6994 70° East 505 581 35,000  Level Salt Lake Center
04:42PM 41.2764 -114.5239 70° East 505 581 35,000  Level Salt Lake Center
04:43PM 41.3336 -114.3139 70° East 505 581 35,000  Level Salt Lake Center
04:44PM 41.3797 -114.1372 71° East 505 581 35,000  Level Salt Lake Center
04:45PM 41.4253 -113.9625 71° East 502 578 35,000  Level Salt Lake Center
04:47PM 41.4717 -113.7875 70° East 502 578 35,000  Level Salt Lake Center
04:48PM 41.5169 -113.6125 71° East 500 575 35,000  Level Salt Lake Center
04:49PM 41.5614 -113.4378 71° East 498 573 35,000  Level Salt Lake Center
04:50PM 41.6150 -113.2272 71° East 499 574 35,000  Level Salt Lake Center
04:51PM 41.6603 -113.0506 71° East 502 578 35,100  Climbing Salt Lake Center
04:52PM 41.7042 -112.8736 72° East 500 575 35,000 -60 Descending Salt Lake Center
04:53PM 41.7486 -112.6978 71° East 498 573 35,000  Level Salt Lake Center
04:54PM 41.7897 -112.5233 72° East 494 568 35,000  Level Salt Lake Center
04:55PM 41.8350 -112.3464 71° East 497 572 35,000  Level Salt Lake Center
04:56PM 41.8772 -112.1689 72° East 499 574 35,000  Level Salt Lake Center
04:57PM 41.9217 -111.9911 71° East 500 575 35,000  Level Salt Lake Center
04:58PM 41.9717 -111.7814 72° East 493 567 35,000  Level Salt Lake Center
04:59PM 42.0136 -111.6036 72° East 497 572 35,000  Level Salt Lake Center
05:00PM 42.0553 -111.4281 72° East 494 568 35,000  Level Salt Lake Center
05:01PM 42.0969 -111.2519 72° East 494 568 35,000  Level Salt Lake Center
05:02PM 42.1375 -111.0733 73° East 498 573 35,000  Level Salt Lake Center
05:03PM 42.1867 -110.8678 72° East 496 571 35,000  Level Salt Lake Center
05:04PM 42.2236 -110.6986 74° East 495 570 35,000  Level Salt Lake Center
05:05PM 42.2633 -110.5286 72° East 495 570 35,000  Level Salt Lake Center
05:06PM 42.3075 -110.3322 73° East 491 565 35,000 -60 Level Salt Lake Center
05:07PM 42.3444 -110.1628 74° East 490 564 34,900  Descending Salt Lake Center
05:08PM 42.3886 -109.9642 73° East 492 566 35,000  Climbing Salt Lake Center
05:09PM 42.4272 -109.7931 73° East 495 570 35,000  Level Salt Lake Center
05:10PM 42.4706 -109.5922 74° East 496 571 35,000  Level Salt Lake Center
05:11PM 42.5081 -109.4208 73° East 496 571 35,000  Level Salt Lake Center
05:12PM 42.5517 -109.2200 74° East 497 572 35,000  Level Salt Lake Center
05:13PM 42.5878 -109.0456 74° East 499 574 35,000  Level Salt Lake Center
05:14PM 42.6297 -108.8453 74° East 496 571 35,000  Level Salt Lake Center
05:15PM 42.6653 -108.6736 74° East 493 567 35,000  Level Salt Lake Center
05:16PM 42.7008 -108.5017 74° East 494 568 35,000  Level Salt Lake Center
05:18PM 42.7425 -108.2992 74° East 498 573 35,000  Level Salt Lake Center
05:19PM 42.7781 -108.1261 74° East 498 573 35,000  Level Salt Lake Center
05:20PM 42.8186 -107.9222 75° East 499 574 35,000  Level Salt Lake Center
05:21PM 42.8533 -107.7483 75° East 497 572 35,000  Level Salt Lake Center
05:22PM 42.8928 -107.5467 75° East 495 570 35,000  Level Salt Lake Center
05:23PM 42.9281 -107.3728 74° East 496 571 35,000  Level Salt Lake Center
05:24PM 42.9583 -107.2014 76° East 496 571 35,000  Level Denver Center
05:25PM 42.9872 -107.0558 75° East 497 572 35,000  Level Denver Center
05:26PM 43.0319 -106.8206 75° East 501 577 35,000  Level Denver Center
05:27PM 43.0656 -106.6444 75° East 502 578 35,000  Level Denver Center
05:28PM 43.1019 -106.4372 76° East 501 577 35,000  Level Denver Center
05:29PM 43.1361 -106.2606 75° East 500 575 35,000  Level Denver Center
05:30PM 43.1736 -106.0553 76° East 500 575 35,000  Level Denver Center
05:31PM 43.2056 -105.8781 76° East 500 575 35,000  Level Denver Center
05:32PM 43.2419 -105.6706 76° East 501 577 35,000  Level Denver Center
05:33PM 43.2733 -105.4928 76° East 500 575 35,000  Level Denver Center
05:34PM 43.3097 -105.2853 76° East 499 574 35,000  Level Denver Center
05:35PM 43.3406 -105.1083 76° East 498 573 35,000  Level Denver Center
05:36PM 43.3761 -104.8986 77° East 500 575 35,000  Level Denver Center
05:37PM 43.4061 -104.7175 77° East 503 579 35,000  Level Denver Center
05:38PM 43.4361 -104.5372 77° East 504 580 35,000  Level Denver Center
05:39PM 43.4714 -104.3267 77° East 504 580 35,000  Level Denver Center
05:40PM 43.4997 -104.1469 78° East 503 579 35,000  Level Denver Center
05:41PM 43.5350 -103.9392 77° East 500 575 35,000  Level Denver Center
05:42PM 43.5642 -103.7603 77° East 500 575 35,000  Level Denver Center
05:43PM 43.5967 -103.5478 78° East 505 581 35,000  Level Denver Center
05:44PM 43.6258 -103.3658 77° East 507 583 35,000  Level Denver Center
05:45PM 43.6578 -103.1547 78° East 505 581 35,000  Level Denver Center
05:46PM 43.6847 -102.9725 78° East 506 582 35,000  Level Denver Center
05:47PM 43.7161 -102.7597 78° East 506 582 35,000  Level Denver Center
05:48PM 43.7408 -102.5836 79° East 495 570 35,000  Level Denver Center
05:49PM 43.7683 -102.4094 78° East 488 562 35,000  Level Denver Center
05:50PM 43.7981 -102.2011 79° East 493 567 35,000  Level Denver Center
05:52PM 43.8236 -102.0172 79° East 495 570 35,000  Level Denver Center
05:53PM 43.8494 -101.8297 79° East 497 572 35,000  Level Denver Center
05:54PM 43.8767 -101.6417 79° East 499 574 35,000  Level Denver Center
05:55PM 43.9075 -101.4081 80° East 513 590 35,000  Level Denver Center
05:56PM 43.9339 -101.2139 79° East 515 593 35,000  Level Denver Center
05:57PM 43.9606 -101.0228 79° East 510 587 35,000  Level Denver Center
05:58PM 43.9858 -100.8289 80° East 512 589 35,000  Level Denver Center
05:59PM 44.0164 -100.5989 79° East 511 588 35,000  Level Minneapolis Center
06:00PM 44.0394 -100.4064 80° East 509 586 35,000  Level Minneapolis Center
06:01PM 44.0642 -100.2153 80° East 506 582 35,000  Level Minneapolis Center
06:02PM 44.0883 -100.0200 80° East 513 590 35,000  Level Minneapolis Center
06:03PM 44.1125 -99.8242 80° East 515 593 35,000  Level Minneapolis Center
06:04PM 44.1364 -99.6289 80° East 516 594 35,000  Level Minneapolis Center
06:05PM 44.1642 -99.3969 80° East 512 589 35,000  Level Minneapolis Center
06:06PM 44.1864 -99.2033 81° East 510 587 35,000  Level Minneapolis Center
06:07PM 44.2106 -99.0069 80° East 515 593 35,000  Level Minneapolis Center
06:08PM 44.2333 -98.8108 81° East 515 593 35,000  Level Minneapolis Center
06:09PM 44.2533 -98.6181 82° East 508 585 35,000  Level Minneapolis Center
06:10PM 44.2797 -98.3847 81° East 510 587 35,000  Level Minneapolis Center
06:11PM 44.2969 -98.2231 81° East 506 582 35,000  Level Minneapolis Center
06:12PM 44.3217 -97.9919 81° East 504 580 35,000  Level Minneapolis Center
06:13PM 44.3419 -97.7967 82° East 507 583 35,000  Level Minneapolis Center
06:14PM 44.3611 -97.6022 82° East 506 582 35,000  Level Minneapolis Center
06:15PM 44.3806 -97.4078 82° East 506 582 35,000  Level Minneapolis Center
06:16PM 44.4000 -97.2139 82° East 505 581 35,000  Level Minneapolis Center
06:17PM 44.4186 -97.0175 82° East 508 585 35,000 -600 Level Minneapolis Center
06:18PM 44.4419 -96.7847 82° East 505 581 33,800 -1,020 Descending Minneapolis Center
06:19PM 44.4600 -96.5872 83° East 508 585 33,000 -420 Descending Minneapolis Center
06:20PM 44.4783 -96.3867 83° East 515 593 33,000  Level Minneapolis Center
06:22PM 44.4981 -96.1856 82° East 515 593 33,000  Level Minneapolis Center
06:23PM 44.5153 -95.9847 83° East 514 592 33,000 -300 Level Minneapolis Center
06:24PM 44.5322 -95.7869 83° East 510 587 32,500 -1,740 Descending Minneapolis Center
06:25PM 44.5483 -95.5864 83° East 515 593 29,500 -2,640 Descending Minneapolis Center
06:26PM 44.5644 -95.3883 83° East 514 592 27,100 -2,520 Descending Minneapolis Center
06:27PM 44.5817 -95.1647 84° East 484 557 24,300 -2,460 Descending Minneapolis Center
06:28PM 44.5967 -94.9881 83° East 461 531 22,100 -2,160 Descending Minneapolis Center
06:29PM 44.6117 -94.8178 83° East 447 514 19,900 -2,160 Descending Minneapolis Center
06:30PM 44.6231 -94.6522 84° East 433 498 17,700 -2,100 Descending Minneapolis Center
06:31PM 44.6353 -94.4775 84° East 412 474 15,600 -2,040 Descending Minneapolis Center
06:32PM 44.6533 -94.3250 80° East 395 455 13,500 -2,040 Descending Minneapolis Center
06:33PM 44.6872 -94.1847 71° East 378 435 11,500 -1,200 Descending Minneapolis Center
06:34PM 44.7178 -94.0458 73° East 373 429 11,100 -240 Descending Minneapolis Center
06:35PM 44.7483 -93.9089 73° East 368 423 11,100 -60 Level Minneapolis Center
06:36PM 44.7856 -93.7428 72° East 370 426 11,000 -300 Descending Minneapolis Center
06:37PM 44.8150 -93.6086 73° East 358 412 10,500 -840 Descending Minneapolis Center
06:38PM 44.8411 -93.4897 73° East 319 367 9,300 -1,200 Descending Minneapolis Center
06:39PM 44.8642 -93.3758 74° East 302 348 8,100 -660 Descending Minneapolis Center
06:40PM 44.8114 -93.3103 139° Southeast 272 313 8,000 -60 Descending Minneapolis Center
06:41PM 44.7269 -93.2872 169° South 267 307 8,000 -180 Level Minneapolis Center
06:42PM 44.6583 -93.2694 170° South 262 302 7,700 -600 Descending Minneapolis Center
06:43PM 44.6061 -93.2250 149° Southeast 237 273 6,800 -1,020 Descending Minneapolis Center
06:44PM 44.6414 -93.1836 40° Northeast 194 223 5,700 -1,080 Descending Minneapolis Center